Time,TemperatureF,DewpointF,PressureIn,WindDirection,WindDirectionDegrees,WindSpeedMPH,WindSpeedGustMPH,Humidity,HourlyPrecipIn,Conditions,Clouds,dailyrainin,SoftwareType,DateUTC
2013-05-06 00:02:00,54.7,31.0,29.71,SE,125,1.0,3.0,40,0.00,,,0.00,weatherlink.com 1.10,2013-05-06 07:02:00,
2013-05-06 00:17:00,54.9,31.0,29.72,SE,138,0.0,3.0,41,0.00,,,0.00,weatherlink.com 1.10,2013-05-06 07:17:00,
2013-05-06 00:32:00,54.5,31.0,29.72,SW,219,0.0,6.0,41,0.00,,,0.00,weatherlink.com 1.10,2013-05-06 07:32:00,
2013-05-06 00:47:00,54.7,31.0,29.72,SSE,162,1.0,2.0,41,0.00,,,0.00,weatherlink.com 1.10,2013-05-06 07:47:00,
2013-05-06 01:02:00,54.7,31.0,29.73,SSW,198,0.0,2.0,41,0.00,,,0.00,weatherlink.com 1.10,2013-05-06 08:02:00,
2013-05-06 01:17:00,54.7,31.0,29.72,SE,131,0.0,1.0,41,0.00,,,0.00,weatherlink.com 1.10,2013-05-06 08:17:00,
2013-05-06 01:33:00,54.1,31.0,29.72,SE,131,0.0,1.0,42,0.00,,,0.00,weatherlink.com 1.10,2013-05-06 08:33:00,
2013-05-06 01:48:00,53.5,31.0,29.73,East,82,0.0,2.0,43,0.00,,,0.00,weatherlink.com 1.10,2013-05-06 08:48:00,
2013-05-06 02:03:00,53.5,31.0,29.72,ESE,109,1.0,1.0,43,0.00,,,0.00,weatherlink.com 1.10,2013-05-06 09:03:00,
2013-05-06 02:18:00,53.1,31.0,29.72,SE,125,1.0,2.0,43,0.00,,,0.00,weatherlink.com 1.10,2013-05-06 09:18:00,
2013-05-06 02:33:00,53.2,31.0,29.72,SE,125,0.0,0.0,43,0.00,,,0.00,weatherlink.com 1.10,2013-05-06 09:33:00,
2013-05-06 02:49:00,52.1,31.0,29.71,ESE,120,0.0,1.0,45,0.00,,,0.00,weatherlink.com 1.10,2013-05-06 09:49:00,
2013-05-06 03:03:00,54.3,32.0,29.71,ESE,117,2.0,2.0,43,0.00,,,0.00,weatherlink.com 1.10,2013-05-06 10:03:00,
2013-05-06 03:18:00,56.5,32.0,29.70,ESE,105,1.0,2.0,40,0.00,,,0.00,weatherlink.com 1.10,2013-05-06 10:18:00,
2013-05-06 03:33:00,57.1,32.0,29.71,ESE,105,0.0,1.0,39,0.00,,,0.00,weatherlink.com 1.10,2013-05-06 10:33:00,
2013-05-06 03:48:00,55.7,32.0,29.71,ESE,107,0.0,1.0,41,0.00,,,0.00,weatherlink.com 1.10,2013-05-06 10:48:00,
2013-05-06 04:03:00,53.0,32.0,29.70,SE,130,0.0,1.0,45,0.00,,,0.00,weatherlink.com 1.10,2013-05-06 11:03:00,
2013-05-06 04:18:00,52.6,32.0,29.71,ESE,113,0.0,0.0,46,0.00,,,0.00,weatherlink.com 1.10,2013-05-06 11:18:00,
2013-05-06 04:33:00,50.1,32.0,29.71,ESE,113,0.0,0.0,50,0.00,,,0.00,weatherlink.com 1.10,2013-05-06 11:33:00,
2013-05-06 04:48:00,50.5,32.0,29.71,SSE,160,4.0,4.0,50,0.00,,,0.00,weatherlink.com 1.10,2013-05-06 11:48:00,
2013-05-06 05:03:00,50.7,32.0,29.71,SW,221,0.0,3.0,50,0.00,,,0.00,weatherlink.com 1.10,2013-05-06 12:03:00,
2013-05-06 05:19:00,50.0,32.0,29.72,ESE,110,2.0,3.0,51,0.00,,,0.00,weatherlink.com 1.10,2013-05-06 12:19:00,
2013-05-06 05:33:00,50.8,33.0,29.71,ESE,105,1.0,3.0,50,0.00,,,0.00,weatherlink.com 1.10,2013-05-06 12:33:00,
2013-05-06 05:48:00,51.1,32.0,29.71,SE,127,1.0,2.0,49,0.00,,,0.00,weatherlink.com 1.10,2013-05-06 12:48:00,
2013-05-06 06:03:00,51.4,33.0,29.71,SE,129,0.0,0.0,49,0.00,,,0.00,weatherlink.com 1.10,2013-05-06 13:03:00,
2013-05-06 06:18:00,50.7,32.0,29.71,SE,129,0.0,1.0,50,0.00,,,0.00,weatherlink.com 1.10,2013-05-06 13:18:00,
2013-05-06 06:33:00,49.9,33.0,29.71,SE,131,1.0,1.0,52,0.00,,,0.00,weatherlink.com 1.10,2013-05-06 13:33:00,
2013-05-06 06:48:00,50.6,34.0,29.72,SE,129,1.0,1.0,53,0.00,,,0.00,weatherlink.com 1.10,2013-05-06 13:48:00,
2013-05-06 07:03:00,51.2,33.0,29.72,SE,129,0.0,0.0,51,0.00,,,0.00,weatherlink.com 1.10,2013-05-06 14:03:00,
2013-05-06 07:18:00,51.8,34.0,29.72,SSE,155,1.0,2.0,51,0.00,,,0.00,weatherlink.com 1.10,2013-05-06 14:18:00,
2013-05-06 07:33:00,54.4,35.0,29.72,SE,143,2.0,3.0,48,0.00,,,0.00,weatherlink.com 1.10,2013-05-06 14:33:00,
2013-05-06 07:48:00,55.9,35.0,29.72,SSW,211,1.0,3.0,45,0.00,,,0.00,weatherlink.com 1.10,2013-05-06 14:48:00,
2013-05-06 08:03:00,56.1,35.0,29.72,WSW,246,1.0,3.0,46,0.00,,,0.00,weatherlink.com 1.10,2013-05-06 15:03:00,
2013-05-06 08:18:00,56.4,35.0,29.72,NNW,338,1.0,2.0,44,0.00,,,0.00,weatherlink.com 1.10,2013-05-06 15:18:00,
2013-05-06 08:33:00,56.9,34.0,29.72,WNW,296,0.0,3.0,43,0.00,,,0.00,weatherlink.com 1.10,2013-05-06 15:33:00,
2013-05-06 08:48:00,58.0,36.0,29.72,NNW,342,0.0,3.0,44,0.00,,,0.00,weatherlink.com 1.10,2013-05-06 15:48:00,
2013-05-06 09:03:00,59.1,38.0,29.72,North,6,1.0,5.0,45,0.00,,,0.00,weatherlink.com 1.10,2013-05-06 16:03:00,
2013-05-06 09:18:00,60.4,38.0,29.71,NNW,333,1.0,6.0,43,0.00,,,0.00,weatherlink.com 1.10,2013-05-06 16:18:00,
2013-05-06 09:33:00,60.9,39.0,29.72,NW,309,3.0,6.0,44,0.00,,,0.00,weatherlink.com 1.10,2013-05-06 16:33:00,
2013-05-06 09:48:00,62.2,39.0,29.71,NW,326,1.0,6.0,42,0.00,,,0.00,weatherlink.com 1.10,2013-05-06 16:48:00,
2013-05-06 10:03:00,63.8,39.0,29.71,WNW,301,1.0,7.0,40,0.00,,,0.00,weatherlink.com 1.10,2013-05-06 17:03:00,
2013-05-06 10:18:00,64.9,40.0,29.71,NNW,336,4.0,10.0,40,0.00,,,0.00,weatherlink.com 1.10,2013-05-06 17:18:00,
2013-05-06 10:34:00,64.7,40.0,29.71,WNW,293,12.0,12.0,40,0.00,,,0.00,weatherlink.com 1.10,2013-05-06 17:34:00,
2013-05-06 10:49:00,65.2,40.0,29.71,NW,314,3.0,11.0,40,0.00,,,0.00,weatherlink.com 1.10,2013-05-06 17:49:00,
2013-05-06 11:04:00,65.7,40.0,29.71,NNE,23,6.0,10.0,39,0.00,,,0.00,weatherlink.com 1.10,2013-05-06 18:04:00,
2013-05-06 11:19:00,67.1,40.0,29.70,NW,319,3.0,7.0,37,0.00,,,0.00,weatherlink.com 1.10,2013-05-06 18:19:00,
2013-05-06 11:34:00,67.0,38.0,29.69,NNW,328,3.0,14.0,34,0.00,,,0.00,weatherlink.com 1.10,2013-05-06 18:34:00,
2013-05-06 11:49:00,69.2,35.0,29.68,NNE,27,4.0,12.0,28,0.00,,,0.00,weatherlink.com 1.10,2013-05-06 18:49:00,
2013-05-06 12:04:00,70.3,34.0,29.67,NNW,335,12.0,12.0,26,0.00,,,0.00,weatherlink.com 1.10,2013-05-06 19:04:00,
2013-05-06 12:19:00,71.4,34.0,29.68,NW,308,5.0,10.0,25,0.00,,,0.00,weatherlink.com 1.10,2013-05-06 19:19:00,
2013-05-06 12:34:00,71.8,33.0,29.67,North,352,3.0,12.0,24,0.00,,,0.00,weatherlink.com 1.10,2013-05-06 19:34:00,
2013-05-06 12:49:00,73.3,34.0,29.67,NW,312,1.0,12.0,24,0.00,,,0.00,weatherlink.com 1.10,2013-05-06 19:49:00,
2013-05-06 13:04:00,72.7,34.0,29.67,NW,320,3.0,7.0,24,0.00,,,0.00,weatherlink.com 1.10,2013-05-06 20:04:00,
2013-05-06 13:19:00,74.1,33.0,29.66,NNW,330,3.0,8.0,22,0.00,,,0.00,weatherlink.com 1.10,2013-05-06 20:19:00,
2013-05-06 13:34:00,75.4,36.0,29.66,WNW,301,5.0,12.0,24,0.00,,,0.00,weatherlink.com 1.10,2013-05-06 20:34:00,
2013-05-06 13:49:00,75.1,35.0,29.66,East,82,5.0,10.0,23,0.00,,,0.00,weatherlink.com 1.10,2013-05-06 20:49:00,
2013-05-06 14:04:00,75.0,34.0,29.65,NNE,13,5.0,11.0,22,0.00,,,0.00,weatherlink.com 1.10,2013-05-06 21:04:00,
2013-05-06 14:19:00,73.2,36.0,29.65,NNW,343,4.0,8.0,26,0.00,,,0.00,weatherlink.com 1.10,2013-05-06 21:19:00,
2013-05-06 14:34:00,75.0,36.0,29.65,NNW,342,8.0,9.0,24,0.00,,,0.00,weatherlink.com 1.10,2013-05-06 21:34:00,
2013-05-06 14:49:00,75.8,35.0,29.64,NW,319,5.0,8.0,23,0.00,,,0.00,weatherlink.com 1.10,2013-05-06 21:49:00,
2013-05-06 15:04:00,76.3,38.0,29.64,NNW,327,7.0,8.0,25,0.00,,,0.00,weatherlink.com 1.10,2013-05-06 22:04:00,
2013-05-06 15:19:00,73.6,36.0,29.63,NNW,330,4.0,12.0,25,0.00,,,0.00,weatherlink.com 1.10,2013-05-06 22:19:00,
2013-05-06 15:34:00,73.2,35.0,29.62,SE,127,2.0,11.0,25,0.00,,,0.00,weatherlink.com 1.10,2013-05-06 22:34:00,
2013-05-06 15:49:00,72.0,33.0,29.62,NW,320,2.0,9.0,24,0.00,,,0.00,weatherlink.com 1.10,2013-05-06 22:49:00,
2013-05-06 16:04:00,73.0,33.0,29.62,NNW,329,8.0,11.0,23,0.00,,,0.00,weatherlink.com 1.10,2013-05-06 23:04:00,
2013-05-06 16:19:00,72.5,33.0,29.62,NNW,338,4.0,12.0,23,0.00,,,0.00,weatherlink.com 1.10,2013-05-06 23:19:00,
2013-05-06 16:34:00,71.7,32.0,29.62,NNW,328,5.0,9.0,23,0.00,,,0.00,weatherlink.com 1.10,2013-05-06 23:34:00,
2013-05-06 16:49:00,72.8,33.0,29.61,NW,309,7.0,12.0,23,0.00,,,0.00,weatherlink.com 1.10,2013-05-06 23:49:00,
2013-05-06 17:04:00,75.0,32.0,29.61,West,281,4.0,12.0,21,0.00,,,0.00,weatherlink.com 1.10,2013-05-07 00:04:00,
2013-05-06 17:19:00,73.8,31.0,29.62,NW,323,7.0,16.0,21,0.00,,,0.00,weatherlink.com 1.10,2013-05-07 00:19:00,
2013-05-06 17:34:00,74.0,33.0,29.62,North,11,5.0,17.0,22,0.00,,,0.00,weatherlink.com 1.10,2013-05-07 00:34:00,
2013-05-06 17:49:00,73.1,31.0,29.62,NNE,33,6.0,16.0,21,0.00,,,0.00,weatherlink.com 1.10,2013-05-07 00:49:00,
2013-05-06 18:04:00,73.5,32.0,29.62,WNW,297,4.0,18.0,22,0.00,,,0.00,weatherlink.com 1.10,2013-05-07 01:04:00,
2013-05-06 18:19:00,73.1,31.0,29.62,NNW,332,9.0,16.0,21,0.00,,,0.00,weatherlink.com 1.10,2013-05-07 01:19:00,
2013-05-06 18:34:00,72.5,31.0,29.62,NNE,13,6.0,15.0,22,0.00,,,0.00,weatherlink.com 1.10,2013-05-07 01:34:00,
2013-05-06 18:49:00,72.2,31.0,29.62,NW,319,4.0,13.0,22,0.00,,,0.00,weatherlink.com 1.10,2013-05-07 01:49:00,
2013-05-06 19:04:00,71.3,29.0,29.62,NNW,327,3.0,13.0,21,0.00,,,0.00,weatherlink.com 1.10,2013-05-07 02:04:00,
2013-05-06 19:20:00,71.6,31.0,29.63,WNW,284,3.0,11.0,22,0.00,,,0.00,weatherlink.com 1.10,2013-05-07 02:20:00,
2013-05-06 19:35:00,70.8,31.0,29.64,WNW,290,4.0,10.0,23,0.00,,,0.00,weatherlink.com 1.10,2013-05-07 02:35:00,
2013-05-06 19:50:00,69.7,30.0,29.64,NNE,22,4.0,8.0,23,0.00,,,0.00,weatherlink.com 1.10,2013-05-07 02:50:00,
2013-05-06 20:05:00,68.1,31.0,29.64,NNW,327,1.0,6.0,25,0.00,,,0.00,weatherlink.com 1.10,2013-05-07 03:05:00,
2013-05-06 20:20:00,65.7,30.0,29.64,NNW,342,1.0,4.0,26,0.00,,,0.00,weatherlink.com 1.10,2013-05-07 03:20:00,
2013-05-06 20:35:00,64.0,29.0,29.64,NNW,332,0.0,4.0,27,0.00,,,0.00,weatherlink.com 1.10,2013-05-07 03:35:00,
2013-05-06 20:50:00,62.9,29.0,29.65,NNE,19,0.0,3.0,28,0.00,,,0.00,weatherlink.com 1.10,2013-05-07 03:50:00,
2013-05-06 21:05:00,62.6,29.0,29.66,North,8,0.0,5.0,28,0.00,,,0.00,weatherlink.com 1.10,2013-05-07 04:05:00,
2013-05-06 21:20:00,62.1,28.0,29.67,East,95,1.0,2.0,28,0.00,,,0.00,weatherlink.com 1.10,2013-05-07 04:20:00,
2013-05-06 21:35:00,61.4,29.0,29.67,ESE,121,1.0,2.0,29,0.00,,,0.00,weatherlink.com 1.10,2013-05-07 04:35:00,
2013-05-06 21:50:00,61.9,29.0,29.67,ESE,116,0.0,2.0,29,0.00,,,0.00,weatherlink.com 1.10,2013-05-07 04:50:00,
2013-05-06 22:05:00,62.0,29.0,29.68,ESE,120,1.0,2.0,29,0.00,,,0.00,weatherlink.com 1.10,2013-05-07 05:05:00,
2013-05-06 22:20:00,62.0,30.0,29.68,ESE,120,1.0,2.0,30,0.00,,,0.00,weatherlink.com 1.10,2013-05-07 05:20:00,
2013-05-06 22:35:00,61.9,30.0,29.68,ESE,104,0.0,1.0,30,0.00,,,0.00,weatherlink.com 1.10,2013-05-07 05:35:00,
2013-05-06 22:50:00,61.1,30.0,29.68,ESE,105,0.0,0.0,31,0.00,,,0.00,weatherlink.com 1.10,2013-05-07 05:50:00,
2013-05-06 23:05:00,59.1,30.0,29.69,West,260,3.0,3.0,33,0.00,,,0.00,weatherlink.com 1.10,2013-05-07 06:05:00,
2013-05-06 23:20:00,56.2,29.0,29.69,ESE,123,0.0,3.0,36,0.00,,,0.00,weatherlink.com 1.10,2013-05-07 06:20:00,
2013-05-06 23:35:00,56.2,31.0,29.69,SE,143,0.0,3.0,38,0.00,,,0.00,weatherlink.com 1.10,2013-05-07 06:35:00,
2013-05-06 23:50:00,56.1,34.0,29.70,ESE,120,0.0,0.0,43,0.00,,,0.00,weatherlink.com 1.10,2013-05-07 06:50:00,